Time;durP1;ratioP1;P1;durP2;ratioP2;P2;SDS_P1;SDS_P2;PMS_P1;PMS_P2;Temp;Humidity;BMP_temperature;BMP_pressure;BME280_temperature;BME280_humidity;BME280_pressure;Samples;Min_cycle;Max_cycle;Signal;HPM_P1;HPM_P2
2021/12/13 00:00:39;;;;;;;7.95;5.47;;;16.50;99.90;;;;;;1035031;28;20366;-66
2021/12/13 00:01:25;;;;;;;6.95;5.07;;;16.50;99.90;;;;;;1035429;28;20071;-64
2021/12/13 00:02:03;;;;;;;4.90;4.25;;;16.50;99.90;;;;;;1036582;28;20013;-65
2021/12/13 00:02:36;;;;;;;4.57;4.10;;;16.50;99.90;;;;;;1033454;28;20476;-66
2021/12/13 00:03:23;;;;;;;6.65;5.32;;;16.50;99.90;;;;;;1035558;28;20071;-64
2021/12/13 00:03:58;;;;;;;6.65;5.40;;;16.60;99.90;;;;;;1036092;28;20025;-65
2021/12/13 00:04:37;;;;;;;7.60;5.55;;;16.60;99.90;;;;;;1036270;28;20272;-68
2021/12/13 00:05:14;;;;;;;8.57;5.20;;;16.50;99.90;;;;;;1035606;28;20025;-67
2021/12/13 00:05:49;;;;;;;6.18;5.57;;;16.50;99.90;;;;;;1036160;28;20851;-67
2021/12/13 00:06:30;;;;;;;6.40;5.57;;;16.50;99.90;;;;;;1033438;28;20009;-67
2021/12/13 00:07:14;;;;;;;7.28;5.82;;;16.50;99.90;;;;;;1035485;28;20553;-66
2021/12/13 00:07:54;;;;;;;5.38;4.88;;;16.50;99.90;;;;;;1036094;28;20042;-65
2021/12/13 00:08:31;;;;;;;5.55;5.05;;;16.50;99.90;;;;;;1035731;28;20500;-65
2021/12/13 00:09:09;;;;;;;7.47;4.90;;;16.50;99.90;;;;;;1035608;28;20028;-66
2021/12/13 00:09:44;;;;;;;5.75;4.03;;;16.50;99.90;;;;;;1036032;28;20762;-65
2021/12/13 00:10:18;;;;;;;6.75;5.32;;;16.50;99.90;;;;;;1033746;28;20068;-67
2021/12/13 00:10:53;;;;;;;7.85;5.20;;;16.50;99.90;;;;;;1035642;28;20014;-65
2021/12/13 00:11:28;;;;;;;7.70;6.28;;;16.50;99.90;;;;;;1035131;28;20075;-65
2021/12/13 00:12:03;;;;;;;6.22;4.55;;;16.50;99.90;;;;;;1036757;28;20064;-66
2021/12/13 00:12:38;;;;;;;8.05;5.55;;;16.50;99.90;;;;;;1035764;28;20032;-66
2021/12/13 00:13:18;;;;;;;5.03;4.45;;;16.50;99.90;;;;;;1034497;28;20362;-64
2021/12/13 00:13:54;;;;;;;7.45;5.80;;;16.50;99.90;;;;;;1035749;28;20071;-66
2021/12/13 00:14:29;;;;;;;6.40;3.97;;;16.50;99.90;;;;;;1028548;28;20073;-65
2021/12/13 00:15:03;;;;;;;5.45;4.88;;;16.50;99.90;;;;;;1034959;28;20029;-66
2021/12/13 00:15:38;;;;;;;5.35;3.97;;;16.50;99.90;;;;;;1035077;28;20168;-65
2021/12/13 00:16:11;;;;;;;6.72;5.13;;;16.40;99.90;;;;;;1034128;28;20025;-65
2021/12/13 00:16:59;;;;;;;6.10;5.38;;;16.50;99.90;;;;;;1036311;28;20021;-66
2021/12/13 00:17:38;;;;;;;5.25;4.15;;;16.50;99.90;;;;;;1034783;28;20464;-67
2021/12/13 00:18:17;;;;;;;5.97;4.85;;;16.40;99.90;;;;;;1033110;28;20371;-67
2021/12/13 00:18:55;;;;;;;5.82;4.25;;;16.40;99.90;;;;;;1035024;28;20109;-66
2021/12/13 00:19:37;;;;;;;7.35;5.10;;;16.40;99.90;;;;;;1035548;28;20117;-66
2021/12/13 00:20:15;;;;;;;5.38;4.00;;;16.40;99.90;;;;;;1035950;28;20099;-67
2021/12/13 00:20:50;;;;;;;;;;;16.40;99.90;;;;;;1036629;28;20028;-65
2021/12/13 00:21:28;;;;;;;7.03;5.28;;;16.40;99.90;;;;;;1035481;28;20012;-65
2021/12/13 00:22:04;;;;;;;10.38;6.25;;;16.40;99.90;;;;;;1032166;28;20659;-67
2021/12/13 00:22:41;;;;;;;4.70;4.20;;;16.40;99.90;;;;;;1035293;28;20215;-67
2021/12/13 00:23:27;;;;;;;5.53;4.70;;;16.40;99.90;;;;;;1035438;28;20014;-66
2021/12/13 00:24:02;;;;;;;8.05;5.25;;;16.40;99.90;;;;;;1035778;28;20056;-66
2021/12/13 00:24:36;;;;;;;4.95;3.88;;;16.40;99.90;;;;;;1035675;28;20462;-65
2021/12/13 00:25:10;;;;;;;7.65;5.22;;;16.40;99.90;;;;;;1035043;28;20021;-65
2021/12/13 00:25:44;;;;;;;7.90;4.50;;;16.40;99.90;;;;;;1034792;28;20025;-67
2021/12/13 00:26:27;;;;;;;7.75;4.90;;;16.40;99.90;;;;;;1033479;28;20049;-65
2021/12/13 00:27:11;;;;;;;6.30;4.80;;;16.40;99.90;;;;;;1036549;28;20105;-66
2021/12/13 00:27:49;;;;;;;6.05;4.97;;;16.40;99.90;;;;;;1036280;28;20042;-64
2021/12/13 00:28:21;;;;;;;8.10;4.90;;;16.40;99.90;;;;;;1035287;28;20017;-66
2021/12/13 00:28:52;;;;;;;8.55;4.47;;;16.30;99.90;;;;;;1035994;28;20021;-66
2021/12/13 00:29:25;;;;;;;4.87;4.03;;;16.30;99.90;;;;;;1035092;28;20022;-66
2021/12/13 00:30:16;;;;;;;5.00;3.88;;;16.40;99.90;;;;;;1033374;28;20091;-66
2021/12/13 00:30:51;;;;;;;5.65;4.13;;;16.30;99.90;;;;;;1035576;28;20045;-65
2021/12/13 00:31:41;;;;;;;7.80;4.85;;;16.30;99.90;;;;;;1035640;28;20029;-66
2021/12/13 00:32:42;;;;;;;5.25;4.35;;;16.40;99.90;;;;;;1036262;28;20390;-66
2021/12/13 00:33:36;;;;;;;5.95;4.45;;;16.40;99.90;;;;;;1035862;28;21457;-65
2021/12/13 00:34:13;;;;;;;7.82;5.40;;;16.30;99.90;;;;;;1035055;28;20034;-66
2021/12/13 00:34:57;;;;;;;6.40;5.22;;;16.40;99.90;;;;;;1035944;28;20033;-65
2021/12/13 00:35:55;;;;;;;6.00;4.18;;;16.40;99.90;;;;;;1035271;28;20056;-64
2021/12/13 00:36:38;;;;;;;6.07;4.78;;;16.40;99.90;;;;;;1035384;28;20037;-66
2021/12/13 00:37:11;;;;;;;7.05;4.78;;;16.30;99.90;;;;;;1035498;28;20025;-66
2021/12/13 00:37:45;;;;;;;7.47;4.63;;;16.30;99.90;;;;;;1032980;28;20918;-65
2021/12/13 00:38:19;;;;;;;8.68;5.40;;;16.30;99.90;;;;;;1035370;28;20021;-64
2021/12/13 00:38:55;;;;;;;6.32;4.40;;;16.30;99.90;;;;;;1036233;28;20036;-66
2021/12/13 00:39:39;;;;;;;8.68;6.07;;;16.30;99.90;;;;;;1035822;28;20120;-66
2021/12/13 00:40:18;;;;;;;5.90;5.22;;;16.30;99.90;;;;;;1035756;28;20596;-64
2021/12/13 00:41:00;;;;;;;5.95;4.70;;;16.30;99.90;;;;;;1035843;28;20028;-65
2021/12/13 00:41:31;;;;;;;4.53;3.42;;;16.30;99.90;;;;;;1033541;28;20038;-65
2021/12/13 00:42:07;;;;;;;8.18;5.15;;;16.30;99.90;;;;;;1035218;28;20033;-64
2021/12/13 00:42:43;;;;;;;6.45;4.68;;;16.30;99.90;;;;;;1035188;28;20030;-65
2021/12/13 00:43:28;;;;;;;6.45;4.25;;;16.30;99.90;;;;;;1030887;28;20099;-65
2021/12/13 00:44:09;;;;;;;6.78;5.00;;;16.30;99.90;;;;;;1032055;28;20130;-64
2021/12/13 00:44:50;;;;;;;6.40;5.18;;;16.30;99.90;;;;;;1030651;28;20072;-66
2021/12/13 00:45:27;;;;;;;5.82;4.15;;;16.30;99.90;;;;;;1033237;28;20108;-66
2021/12/13 00:46:05;;;;;;;5.97;4.13;;;16.30;99.90;;;;;;1035694;28;20034;-65
2021/12/13 00:46:38;;;;;;;6.95;4.70;;;16.30;99.90;;;;;;1035556;28;20037;-64
2021/12/13 00:47:26;;;;;;;6.40;4.55;;;16.30;99.90;;;;;;1035013;28;20033;-64
2021/12/13 00:48:00;;;;;;;7.85;4.63;;;16.20;99.90;;;;;;1035572;28;20532;-66
2021/12/13 00:48:35;;;;;;;8.93;4.13;;;16.30;99.90;;;;;;1035697;28;20067;-65
2021/12/13 00:49:09;;;;;;;6.15;3.92;;;16.30;99.90;;;;;;1033488;28;20403;-65
2021/12/13 00:49:44;;;;;;;6.32;4.20;;;16.20;99.90;;;;;;1035253;28;20029;-65
2021/12/13 00:50:20;;;;;;;5.45;4.32;;;16.20;99.90;;;;;;1035458;28;20057;-65
2021/12/13 00:51:03;;;;;;;6.72;4.78;;;16.30;99.90;;;;;;1035412;28;20582;-64
2021/12/13 00:51:39;;;;;;;7.03;4.88;;;16.20;99.90;;;;;;1035740;28;20049;-68
2021/12/13 00:52:15;;;;;;;9.25;5.22;;;16.30;99.90;;;;;;1035278;28;20370;-65
2021/12/13 00:52:48;;;;;;;6.55;4.75;;;16.30;99.90;;;;;;1035965;28;20057;-65
2021/12/13 00:53:21;;;;;;;5.32;4.32;;;16.30;99.90;;;;;;1032721;28;20122;-65
2021/12/13 00:53:53;;;;;;;5.03;3.78;;;16.30;99.90;;;;;;1036019;28;20024;-65
2021/12/13 00:54:29;;;;;;;5.07;4.10;;;16.30;99.90;;;;;;1033518;28;20537;-64
2021/12/13 00:55:01;;;;;;;6.32;4.35;;;16.30;99.90;;;;;;1034486;28;20448;-65
2021/12/13 00:55:34;;;;;;;7.38;4.75;;;16.30;99.90;;;;;;1035780;28;20044;-65
2021/12/13 00:56:42;;;;;;;4.82;3.33;;;16.30;99.90;;;;;;1035244;28;20056;-64
2021/12/13 00:57:37;;;;;;;10.57;5.18;;;16.30;99.90;;;;;;1033025;28;20025;-67
2021/12/13 00:58:11;;;;;;;8.30;5.03;;;16.30;99.90;;;;;;1035562;28;20036;-65
2021/12/13 00:58:43;;;;;;;5.78;4.07;;;16.30;99.90;;;;;;1035905;28;20022;-65
2021/12/13 00:59:36;;;;;;;7.10;4.78;;;16.30;99.90;;;;;;1035548;28;20030;-65
2021/12/13 01:00:18;;;;;;;7.47;5.13;;;16.30;99.90;;;;;;1036049;28;20017;-65
2021/12/13 01:00:57;;;;;;;6.80;4.60;;;16.30;99.90;;;;;;1033758;28;20034;-66
2021/12/13 01:01:28;;;;;;;5.13;4.50;;;16.30;99.90;;;;;;1035932;28;20026;-65
2021/12/13 01:02:07;;;;;;;5.60;4.30;;;16.30;99.90;;;;;;1035707;28;20017;-65
2021/12/13 01:02:52;;;;;;;5.07;4.25;;;16.30;99.90;;;;;;1035990;28;20183;-64
2021/12/13 01:03:40;;;;;;;6.05;3.47;;;16.30;99.90;;;;;;1035434;28;20049;-65
2021/12/13 01:04:14;;;;;;;8.52;4.88;;;16.20;99.90;;;;;;1035282;28;20034;-65
2021/12/13 01:04:50;;;;;;;6.70;4.70;;;16.20;99.90;;;;;;1036522;28;20020;-65
2021/12/13 01:05:45;;;;;;;7.15;4.70;;;16.20;99.90;;;;;;1039494;28;20043;-65
2021/12/13 01:06:57;;;;;;;8.23;4.68;;;16.20;99.90;;;;;;1040176;28;20476;-64
2021/12/13 01:07:33;;;;;;;5.70;4.70;;;16.20;99.90;;;;;;1036310;28;20594;-64
2021/12/13 01:08:15;;;;;;;7.18;4.03;;;16.30;99.90;;;;;;1036444;28;20021;-64
2021/12/13 01:09:34;;;;;;;5.78;3.78;;;16.20;99.90;;;;;;1034766;28;20022;-64
2021/12/13 01:10:38;;;;;;;5.53;4.10;;;16.20;99.90;;;;;;1026861;28;20092;-65
2021/12/13 01:11:38;;;;;;;6.93;3.58;;;16.20;99.90;;;;;;1027003;28;20028;-64
2021/12/13 01:12:13;;;;;;;5.32;4.18;;;16.20;99.90;;;;;;1034628;28;20064;-64
2021/12/13 01:12:47;;;;;;;5.57;3.72;;;16.20;99.90;;;;;;1033695;28;20819;-63
2021/12/13 01:13:35;;;;;;;3.80;3.35;;;16.20;99.90;;;;;;1035741;28;20018;-64
2021/12/13 01:14:27;;;;;;;3.70;2.80;;;16.20;99.90;;;;;;1035956;28;20688;-65
2021/12/13 01:15:02;;;;;;;4.18;3.55;;;16.20;99.90;;;;;;1036801;28;20018;-64
2021/12/13 01:15:42;;;;;;;4.07;3.25;;;16.20;99.90;;;;;;1035517;28;20038;-65
2021/12/13 01:17:13;;;;;;;5.20;3.95;;;16.20;99.90;;;;;;1035936;28;20385;-67
2021/12/13 01:18:19;;;;;;;5.88;3.25;;;16.20;99.90;;;;;;1036709;28;20590;-66
2021/12/13 01:20:26;;;;;;;6.65;3.95;;;16.30;99.90;;;;;;1036092;28;20034;-65
2021/12/13 01:21:16;;;;;;;5.55;3.72;;;16.30;99.90;;;;;;1035873;28;20099;-64
2021/12/13 01:21:57;;;;;;;2.97;2.42;;;16.20;99.90;;;;;;1036226;28;20044;-66
2021/12/13 01:22:50;;;;;;;5.80;4.18;;;16.30;99.90;;;;;;1036477;28;20097;-66
2021/12/13 01:23:38;;;;;;;6.78;4.70;;;16.30;99.90;;;;;;1035837;28;20030;-65
2021/12/13 01:24:20;;;;;;;5.20;3.90;;;16.30;99.90;;;;;;1034519;28;20060;-66
2021/12/13 01:25:38;;;;;;;4.65;3.58;;;16.30;99.90;;;;;;1035874;28;20036;-66
2021/12/13 01:26:36;;;;;;;6.60;3.78;;;16.30;99.90;;;;;;1035954;28;20025;-66
2021/12/13 01:27:04;;;;;;;7.10;4.40;;;16.30;99.90;;;;;;1036747;28;20040;-66
2021/12/13 01:27:39;;;;;;;5.53;3.87;;;16.30;99.90;;;;;;1036526;28;20092;-66
2021/12/13 01:28:18;;;;;;;5.22;3.50;;;16.30;99.90;;;;;;1033463;28;20018;-67
2021/12/13 01:28:52;;;;;;;4.75;3.42;;;16.30;99.90;;;;;;1036147;28;20104;-67
2021/12/13 01:29:27;;;;;;;6.20;3.95;;;16.30;99.90;;;;;;1035624;28;20685;-65
2021/12/13 01:29:58;;;;;;;4.78;3.40;;;16.30;99.90;;;;;;1036464;28;20627;-67
2021/12/13 01:30:35;;;;;;;4.35;3.80;;;16.30;99.90;;;;;;1032767;28;20580;-66
2021/12/13 01:31:12;;;;;;;3.42;3.00;;;16.20;99.90;;;;;;1032062;28;20085;-66
2021/12/13 01:31:56;;;;;;;4.90;3.25;;;16.20;99.90;;;;;;1035266;28;20022;-66
2021/12/13 01:32:39;;;;;;;5.47;4.28;;;16.20;99.90;;;;;;1033229;28;20038;-65
2021/12/13 01:33:12;;;;;;;9.10;4.03;;;16.30;99.90;;;;;;1035148;28;20076;-67
2021/12/13 01:33:46;;;;;;;4.50;3.20;;;16.30;99.90;;;;;;1036650;28;20530;-67
2021/12/13 01:34:18;;;;;;;5.22;3.33;;;16.30;99.90;;;;;;1036418;28;20017;-67
2021/12/13 01:34:48;;;;;;;3.67;2.80;;;16.30;99.90;;;;;;1036952;28;20548;-65
2021/12/13 01:35:23;;;;;;;4.47;2.63;;;16.30;99.90;;;;;;1034983;28;20010;-66
2021/12/13 01:35:59;;;;;;;3.83;3.00;;;16.30;99.90;;;;;;1033879;28;20029;-66
2021/12/13 01:37:03;;;;;;;3.15;2.70;;;16.30;99.90;;;;;;1034457;28;20041;-65
2021/12/13 01:37:34;;;;;;;4.00;3.00;;;16.30;99.90;;;;;;1036277;28;20033;-65
2021/12/13 01:38:14;;;;;;;2.53;2.30;;;16.20;99.90;;;;;;1036789;28;20563;-65
2021/12/13 01:38:49;;;;;;;5.45;3.47;;;16.30;99.90;;;;;;1035985;28;20040;-65
2021/12/13 01:39:23;;;;;;;4.30;3.05;;;16.20;99.90;;;;;;1036158;28;20469;-66
2021/12/13 01:39:56;;;;;;;3.05;2.47;;;16.20;99.90;;;;;;1033644;28;20021;-68
2021/12/13 01:40:28;;;;;;;3.38;2.38;;;16.20;99.90;;;;;;1035845;28;20151;-65
2021/12/13 01:41:08;;;;;;;2.65;2.10;;;16.20;99.90;;;;;;1036704;28;20330;-65
2021/12/13 01:41:54;;;;;;;3.08;2.30;;;16.20;99.90;;;;;;1036544;28;20047;-65
2021/12/13 01:42:29;;;;;;;3.88;3.08;;;16.30;99.90;;;;;;1037195;28;20025;-65
2021/12/13 01:43:08;;;;;;;4.40;3.00;;;16.30;99.90;;;;;;1037710;28;20028;-65
2021/12/13 01:43:44;;;;;;;3.67;2.70;;;16.20;99.90;;;;;;1034383;28;20041;-67
2021/12/13 01:44:26;;;;;;;3.97;2.63;;;16.20;99.90;;;;;;1035654;28;20103;-66
2021/12/13 01:45:00;;;;;;;4.28;2.70;;;16.20;99.90;;;;;;1037061;28;20034;-67
2021/12/13 01:45:34;;;;;;;3.55;2.03;;;16.20;99.90;;;;;;1036431;28;20083;-65
2021/12/13 01:46:05;;;;;;;6.35;3.55;;;16.30;99.90;;;;;;1035627;28;20030;-65
2021/12/13 01:46:42;;;;;;;4.97;3.13;;;16.30;99.90;;;;;;1035858;28;20057;-65
2021/12/13 01:47:26;;;;;;;3.83;2.60;;;16.20;99.90;;;;;;1036654;28;20018;-65
2021/12/13 01:47:57;;;;;;;3.88;2.40;;;16.30;99.90;;;;;;1034438;28;20036;-65
2021/12/13 01:48:31;;;;;;;3.67;2.47;;;16.20;99.90;;;;;;1035319;28;20036;-64
2021/12/13 01:49:04;;;;;;;2.50;2.08;;;16.20;99.90;;;;;;1036511;28;20708;-64
2021/12/13 01:49:39;;;;;;;4.10;2.40;;;16.20;99.90;;;;;;1036190;28;20111;-65
2021/12/13 01:50:17;;;;;;;3.75;2.50;;;16.30;99.90;;;;;;1035571;28;20025;-64
2021/12/13 01:50:52;;;;;;;4.43;2.60;;;16.30;99.90;;;;;;1036690;28;20079;-65
2021/12/13 01:51:27;;;;;;;3.53;2.00;;;16.30;99.90;;;;;;1033974;28;20030;-66
2021/12/13 01:51:59;;;;;;;3.55;2.35;;;16.30;99.90;;;;;;1035400;28;20028;-65
2021/12/13 01:52:34;;;;;;;3.30;2.30;;;16.30;99.90;;;;;;1036235;28;20431;-64
2021/12/13 01:53:04;;;;;;;3.00;1.95;;;16.30;99.90;;;;;;1036969;28;20024;-65
2021/12/13 01:53:52;;;;;;;3.60;2.30;;;16.30;99.90;;;;;;1036681;28;20025;-64
2021/12/13 01:54:23;;;;;;;5.70;2.28;;;16.30;99.90;;;;;;1036064;28;20039;-63
2021/12/13 01:54:57;;;;;;;3.80;2.63;;;16.30;99.90;;;;;;1036535;28;20040;-64
2021/12/13 01:55:34;;;;;;;3.63;2.20;;;16.30;99.90;;;;;;1033362;28;20175;-64
2021/12/13 01:56:24;;;;;;;3.47;2.40;;;16.30;99.90;;;;;;1035848;28;20100;-66
2021/12/13 01:57:55;;;;;;;2.20;1.90;;;16.30;99.90;;;;;;1036068;28;20034;-64
2021/12/13 01:59:03;;;;;;;2.70;2.10;;;16.30;99.90;;;;;;1036599;28;20026;-64
2021/12/13 01:59:49;;;;;;;4.35;2.15;;;16.40;99.90;;;;;;1034382;28;20368;-64
2021/12/13 02:01:08;;;;;;;3.47;2.05;;;16.30;99.90;;;;;;1034561;28;20053;-66
2021/12/13 02:01:24;;;;;;;3.45;2.60;;;16.30;99.90;;;;;;1033950;28;20876;-64
2021/12/13 02:02:07;;;;;;;2.60;2.30;;;16.40;99.90;;;;;;1036589;28;20916;-63
2021/12/13 02:02:43;;;;;;;3.33;2.50;;;16.40;99.90;;;;;;1035860;28;20120;-65
2021/12/13 02:03:13;;;;;;;2.97;2.17;;;16.40;99.90;;;;;;1034044;28;20023;-66
2021/12/13 02:04:04;;;;;;;3.03;2.17;;;16.40;99.90;;;;;;1035860;28;20112;-65
2021/12/13 02:04:35;;;;;;;4.78;2.33;;;16.40;99.90;;;;;;1035557;28;20022;-65
2021/12/13 02:05:39;;;;;;;2.88;1.90;;;16.40;99.90;;;;;;1036294;28;20018;-64
2021/12/13 02:06:15;;;;;;;3.45;2.15;;;16.40;99.90;;;;;;1029715;28;20192;-64
2021/12/13 02:06:50;;;;;;;4.95;2.30;;;16.40;99.90;;;;;;1029538;28;20030;-65
2021/12/13 02:07:33;;;;;;;2.90;2.30;;;16.40;99.90;;;;;;1031887;28;21291;-64
2021/12/13 02:08:06;;;;;;;4.40;2.55;;;16.40;99.90;;;;;;1036097;28;20128;-64
2021/12/13 02:08:37;;;;;;;4.57;2.42;;;16.40;99.90;;;;;;1036436;28;20029;-66
2021/12/13 02:09:10;;;;;;;2.20;2.00;;;16.40;99.90;;;;;;1036281;28;20080;-64
2021/12/13 02:09:44;;;;;;;2.30;1.85;;;16.40;99.90;;;;;;1036284;28;20028;-65
2021/12/13 02:10:23;;;;;;;2.70;2.20;;;16.40;99.90;;;;;;1035990;28;20021;-66
2021/12/13 02:10:56;;;;;;;2.58;2.10;;;16.40;99.90;;;;;;1034717;28;20014;-67
2021/12/13 02:11:29;;;;;;;3.47;1.90;;;16.40;99.90;;;;;;1036025;28;20029;-66
2021/12/13 02:12:05;;;;;;;3.08;2.05;;;16.40;99.90;;;;;;1036565;28;20021;-66
2021/12/13 02:12:40;;;;;;;2.22;1.95;;;16.40;99.90;;;;;;1035912;28;20033;-66
2021/12/13 02:13:22;;;;;;;4.00;2.80;;;16.40;99.90;;;;;;1036546;28;20131;-65
2021/12/13 02:14:08;;;;;;;2.30;1.85;;;16.40;99.90;;;;;;1037016;28;20091;-66
2021/12/13 02:16:55;;;;;;;3.30;2.00;;;16.50;99.90;;;;;;1035258;28;20136;-66
2021/12/13 02:17:26;;;;;;;3.95;2.50;;;16.50;99.90;;;;;;1036092;28;20051;-67
2021/12/13 02:17:57;;;;;;;3.27;2.93;;;16.50;99.90;;;;;;1036670;28;20017;-66
2021/12/13 02:18:32;;;;;;;2.45;2.25;;;16.50;99.90;;;;;;1035585;28;20032;-65
2021/12/13 02:19:03;;;;;;;2.85;2.22;;;16.50;99.90;;;;;;1035091;28;20026;-65
2021/12/13 02:19:58;;;;;;;3.03;2.30;;;16.50;99.90;;;;;;1035796;28;20116;-65
2021/12/13 02:20:33;;;;;;;4.20;2.70;;;16.50;99.90;;;;;;1036488;28;20113;-66
2021/12/13 02:21:23;;;;;;;4.78;3.17;;;16.50;99.90;;;;;;1035703;28;20017;-64
2021/12/13 02:22:16;;;;;;;3.83;2.70;;;16.50;99.90;;;;;;1036610;28;20013;-66
2021/12/13 02:22:51;;;;;;;2.42;2.00;;;16.50;99.90;;;;;;1033340;28;20029;-65
2021/12/13 02:23:24;;;;;;;2.45;2.00;;;16.50;99.90;;;;;;1035842;28;20061;-67
2021/12/13 02:24:05;;;;;;;3.00;2.20;;;16.50;99.90;;;;;;1036465;28;20013;-67
2021/12/13 02:24:38;;;;;;;3.72;2.83;;;16.50;99.90;;;;;;1036001;28;20055;-66
2021/12/13 02:25:20;;;;;;;3.25;2.67;;;16.50;99.90;;;;;;1036077;28;20037;-66
2021/12/13 02:25:55;;;;;;;3.47;2.45;;;16.50;99.90;;;;;;1037530;28;20026;-64
2021/12/13 02:26:28;;;;;;;2.50;2.00;;;16.50;99.90;;;;;;1035315;28;20527;-66
2021/12/13 02:26:59;;;;;;;4.40;3.20;;;16.50;99.90;;;;;;1037011;28;20057;-65
2021/12/13 02:27:34;;;;;;;4.20;2.75;;;16.50;99.90;;;;;;1036542;28;20044;-66
2021/12/13 02:28:13;;;;;;;2.63;2.42;;;16.50;99.90;;;;;;1036356;28;20014;-66
2021/12/13 02:28:49;;;;;;;2.95;2.30;;;16.50;99.90;;;;;;1036705;28;20373;-65
2021/12/13 02:29:34;;;;;;;5.00;3.90;;;16.50;99.90;;;;;;1035680;28;20021;-66
2021/12/13 02:30:37;;;;;;;4.57;2.80;;;16.50;99.90;;;;;;1036826;28;20025;-69
2021/12/13 02:31:19;;;;;;;2.47;2.17;;;16.50;99.90;;;;;;1034865;28;20038;-65
2021/12/13 02:31:50;;;;;;;3.95;2.67;;;16.50;99.90;;;;;;1035868;28;20022;-66
2021/12/13 02:32:25;;;;;;;6.33;4.97;;;16.50;99.90;;;;;;1036647;28;20111;-64
2021/12/13 02:32:56;;;;;;;4.03;3.50;;;16.50;99.90;;;;;;1037723;28;20022;-64
2021/12/13 02:33:47;;;;;;;3.75;2.53;;;16.50;99.90;;;;;;1031724;28;20587;-64
2021/12/13 02:34:18;;;;;;;3.33;2.35;;;16.50;99.90;;;;;;1033382;28;20033;-64
2021/12/13 02:34:50;;;;;;;5.97;5.10;;;16.50;99.90;;;;;;1035212;28;20029;-64
2021/12/13 02:35:23;;;;;;;4.85;4.10;;;16.50;99.90;;;;;;1036608;28;20025;-65
2021/12/13 02:36:09;;;;;;;4.40;2.80;;;16.50;99.90;;;;;;1036798;28;20048;-64
2021/12/13 02:36:44;;;;;;;2.65;2.10;;;16.50;99.90;;;;;;1036090;28;20061;-64
2021/12/13 02:37:15;;;;;;;3.42;2.13;;;16.50;99.90;;;;;;1035496;28;20026;-65
2021/12/13 02:37:46;;;;;;;3.47;2.27;;;16.50;99.90;;;;;;1036818;28;20376;-65
2021/12/13 02:38:19;;;;;;;2.70;2.40;;;16.50;99.90;;;;;;1034078;28;20046;-65
2021/12/13 02:38:53;;;;;;;2.92;2.25;;;16.50;99.90;;;;;;1036515;28;20053;-65
2021/12/13 02:39:28;;;;;;;2.95;2.45;;;16.50;99.90;;;;;;1036186;28;20033;-66
2021/12/13 02:39:59;;;;;;;4.30;2.80;;;16.50;99.90;;;;;;1036921;28;20363;-64
2021/12/13 02:40:30;;;;;;;4.87;3.83;;;16.50;99.90;;;;;;1035473;28;20080;-65
2021/12/13 02:41:02;;;;;;;3.73;2.50;;;16.50;99.90;;;;;;1035421;28;21218;-66
2021/12/13 02:41:34;;;;;;;3.08;2.60;;;16.50;99.90;;;;;;1036600;28;20140;-65
2021/12/13 02:42:08;;;;;;;3.20;1.90;;;16.50;99.90;;;;;;1032715;28;20025;-64
2021/12/13 02:42:39;;;;;;;3.35;2.40;;;16.50;99.90;;;;;;1036612;28;20020;-65
2021/12/13 02:43:15;;;;;;;3.93;2.57;;;16.50;99.90;;;;;;1040442;28;20028;-66
2021/12/13 02:43:51;;;;;;;3.05;2.35;;;16.50;99.90;;;;;;1039740;28;20044;-64
2021/12/13 02:44:29;;;;;;;3.50;2.55;;;16.50;99.90;;;;;;1038838;28;20029;-67
2021/12/13 02:45:28;;;;;;;4.95;2.83;;;16.50;99.90;;;;;;1035526;28;20029;-64
2021/12/13 02:45:59;;;;;;;3.20;2.08;;;16.50;99.90;;;;;;1027750;28;20045;-64
2021/12/13 02:46:31;;;;;;;3.47;2.10;;;16.50;99.90;;;;;;1035749;28;20059;-64
2021/12/13 02:47:06;;;;;;;5.53;4.20;;;16.50;99.90;;;;;;1035578;28;20014;-65
2021/12/13 02:47:40;;;;;;;5.55;4.70;;;16.50;99.90;;;;;;1036847;28;20017;-66
2021/12/13 02:48:18;;;;;;;3.50;2.90;;;16.60;99.90;;;;;;1036193;28;20659;-64
2021/12/13 02:48:51;;;;;;;3.63;2.85;;;16.60;99.90;;;;;;1036394;28;20071;-65
2021/12/13 02:49:22;;;;;;;4.90;3.80;;;16.60;99.90;;;;;;1036285;28;20032;-66
2021/12/13 02:49:53;;;;;;;5.55;5.05;;;16.60;99.90;;;;;;1034518;28;20021;-65
2021/12/13 02:50:43;;;;;;;5.88;5.15;;;16.50;99.90;;;;;;1035805;28;20033;-64
2021/12/13 02:51:24;;;;;;;6.40;5.20;;;16.50;99.90;;;;;;1036261;28;20473;-64
2021/12/13 02:52:01;;;;;;;5.13;4.47;;;16.50;99.90;;;;;;1035779;28;20373;-64
2021/12/13 02:52:31;;;;;;;6.40;5.00;;;16.50;99.90;;;;;;1034976;28;20037;-64
2021/12/13 02:53:03;;;;;;;4.13;3.30;;;16.60;99.90;;;;;;1035043;28;20100;-64
2021/12/13 02:53:40;;;;;;;5.50;5.05;;;16.50;99.90;;;;;;1033609;28;20027;-64
2021/12/13 02:54:16;;;;;;;6.65;5.68;;;16.50;99.90;;;;;;1035792;28;20084;-65
2021/12/13 02:54:51;;;;;;;4.57;4.10;;;16.50;99.90;;;;;;1037218;28;20013;-64
2021/12/13 02:55:28;;;;;;;3.35;3.05;;;16.60;99.90;;;;;;1036364;28;20513;-65
2021/12/13 02:55:59;;;;;;;3.58;2.95;;;16.50;99.90;;;;;;1036630;28;20112;-63
2021/12/13 02:56:35;;;;;;;4.33;3.10;;;16.60;99.90;;;;;;1035848;28;20060;-63
2021/12/13 02:57:11;;;;;;;3.08;2.70;;;16.60;99.90;;;;;;1036583;28;20037;-64
2021/12/13 02:57:45;;;;;;;5.07;4.25;;;16.60;99.90;;;;;;1034432;28;20025;-65
2021/12/13 02:58:20;;;;;;;5.38;2.80;;;16.50;99.90;;;;;;1035202;28;20033;-65
2021/12/13 02:58:52;;;;;;;3.58;3.00;;;16.60;99.90;;;;;;1037058;28;22116;-65
2021/12/13 02:59:25;;;;;;;5.07;3.58;;;16.50;99.90;;;;;;1035495;28;20151;-64
2021/12/13 03:00:25;;;;;;;7.47;6.65;;;16.50;99.90;;;;;;1035415;28;20045;-64
2021/12/13 03:01:05;;;;;;;4.13;3.25;;;16.50;99.90;;;;;;1032093;28;20037;-64
2021/12/13 03:01:50;;;;;;;3.65;2.95;;;16.50;99.90;;;;;;1035806;28;20041;-63
2021/12/13 03:02:30;;;;;;;4.18;3.25;;;16.60;99.90;;;;;;1035677;28;20044;-64
2021/12/13 03:03:07;;;;;;;5.13;4.35;;;16.60;99.90;;;;;;1035960;28;21585;-65
2021/12/13 03:03:41;;;;;;;7.60;6.43;;;16.60;99.90;;;;;;1035799;28;20029;-64
2021/12/13 03:04:16;;;;;;;5.90;4.50;;;16.60;99.90;;;;;;1035571;28;20890;-64
2021/12/13 03:04:48;;;;;;;4.97;3.40;;;16.50;99.90;;;;;;1035657;28;20917;-65
2021/12/13 03:05:35;;;;;;;7.53;5.60;;;16.60;99.90;;;;;;1034135;28;20025;-63
2021/12/13 03:06:16;;;;;;;4.93;3.72;;;16.50;99.90;;;;;;1035622;28;20474;-66
2021/12/13 03:06:56;;;;;;;6.80;5.70;;;16.50;99.90;;;;;;1036516;28;20018;-64
2021/12/13 03:07:38;;;;;;;5.05;4.30;;;16.60;99.90;;;;;;1036771;28;20037;-63
2021/12/13 03:08:15;;;;;;;4.63;3.92;;;16.60;99.90;;;;;;1036248;28;20064;-64
2021/12/13 03:08:51;;;;;;;4.03;3.20;;;16.50;99.90;;;;;;1035254;28;20111;-64
2021/12/13 03:09:26;;;;;;;4.97;3.38;;;16.60;99.90;;;;;;1035406;28;20025;-64
2021/12/13 03:09:58;;;;;;;5.68;4.03;;;16.60;99.90;;;;;;1036437;28;20032;-64
2021/12/13 03:10:33;;;;;;;3.70;2.97;;;16.60;99.90;;;;;;1036413;28;20026;-64
2021/12/13 03:11:13;;;;;;;3.00;2.42;;;16.60;99.90;;;;;;1035457;28;20116;-64
2021/12/13 03:11:45;;;;;;;5.25;4.75;;;16.60;99.90;;;;;;1035788;28;20014;-65
2021/12/13 03:12:18;;;;;;;5.45;4.43;;;16.50;99.90;;;;;;1035721;28;20059;-63
2021/12/13 03:12:49;;;;;;;3.35;3.05;;;16.60;99.90;;;;;;1030103;28;20531;-65
2021/12/13 03:13:20;;;;;;;4.27;2.93;;;16.60;99.90;;;;;;1033706;28;20025;-65
2021/12/13 03:13:56;;;;;;;6.38;4.38;;;16.50;99.90;;;;;;1034200;28;20018;-65
2021/12/13 03:14:30;;;;;;;4.57;3.42;;;16.60;99.90;;;;;;1036237;28;20124;-63
2021/12/13 03:15:07;;;;;;;4.70;3.15;;;16.60;99.90;;;;;;1037328;28;20017;-64
2021/12/13 03:15:38;;;;;;;4.85;3.63;;;16.50;99.90;;;;;;1036207;28;20040;-64
2021/12/13 03:16:15;;;;;;;3.83;3.20;;;16.60;99.90;;;;;;1034882;28;20026;-63
2021/12/13 03:16:51;;;;;;;3.78;3.10;;;16.60;99.90;;;;;;1033452;28;20101;-64
2021/12/13 03:17:31;;;;;;;3.72;3.38;;;16.60;99.90;;;;;;1035533;28;20046;-64
2021/12/13 03:18:21;;;;;;;4.20;3.47;;;16.60;99.90;;;;;;1035963;28;20010;-65
2021/12/13 03:19:04;;;;;;;6.28;5.68;;;16.60;99.90;;;;;;1035909;28;20107;-64
2021/12/13 03:19:40;;;;;;;5.60;4.43;;;16.60;99.90;;;;;;1035576;28;20572;-63
2021/12/13 03:20:16;;;;;;;5.00;4.45;;;16.60;99.90;;;;;;1036236;28;20040;-63
2021/12/13 03:20:50;;;;;;;5.03;3.60;;;16.60;99.90;;;;;;1032857;28;20044;-63
2021/12/13 03:22:04;;;;;;;8.70;5.60;;;16.60;99.90;;;;;;1035395;28;20100;-65
2021/12/13 03:22:55;;;;;;;4.70;3.25;;;16.60;99.90;;;;;;1036090;28;20029;-65
2021/12/13 03:24:00;;;;;;;4.32;3.38;;;16.60;99.90;;;;;;1035608;28;20028;-62
2021/12/13 03:24:34;;;;;;;3.80;3.13;;;16.60;99.90;;;;;;1033206;28;20045;-64
2021/12/13 03:25:27;;;;;;;3.78;3.35;;;16.60;99.90;;;;;;1036166;28;20060;-63
2021/12/13 03:26:06;;;;;;;4.43;3.60;;;16.60;99.90;;;;;;1036245;28;20010;-64
2021/12/13 03:26:37;;;;;;;4.05;2.80;;;16.60;99.90;;;;;;1035959;28;20045;-66
2021/12/13 03:27:46;;;;;;;3.20;2.90;;;16.60;99.90;;;;;;1035952;28;20029;-65
2021/12/13 03:28:36;;;;;;;3.85;2.83;;;16.60;99.90;;;;;;1029162;28;20066;-65
2021/12/13 03:29:25;;;;;;;4.00;2.92;;;16.60;99.90;;;;;;1034563;28;20037;-65
2021/12/13 03:30:09;;;;;;;3.42;3.13;;;16.60;99.90;;;;;;1036530;28;20017;-63